sensor_id;sensor_type;location;lat;lon;timestamp;pressure;altitude;pressure_sealevel;temperature;humidity
40838;BME280;29632;49.168;9.848;2023-06-04T00:01:22;96856.75;;;21.36;31.95
40838;BME280;29632;49.168;9.848;2023-06-04T00:03:47;96858.41;;;21.30;31.97
40838;BME280;29632;49.168;9.848;2023-06-04T00:06:13;96862.28;;;21.28;31.90
40838;BME280;29632;49.168;9.848;2023-06-04T00:08:39;96861.88;;;21.24;31.82
40838;BME280;29632;49.168;9.848;2023-06-04T00:11:04;96854.59;;;21.20;31.95
40838;BME280;29632;49.168;9.848;2023-06-04T00:13:30;96857.44;;;21.18;31.98
40838;BME280;29632;49.168;9.848;2023-06-04T00:15:56;96862.13;;;21.16;31.85
40838;BME280;29632;49.168;9.848;2023-06-04T00:18:21;96856.41;;;21.12;31.90
40838;BME280;29632;49.168;9.848;2023-06-04T00:20:47;96856.84;;;21.09;31.89
40838;BME280;29632;49.168;9.848;2023-06-04T00:23:12;96860.94;;;21.05;31.90
40838;BME280;29632;49.168;9.848;2023-06-04T00:25:38;96857.88;;;21.02;31.90
40838;BME280;29632;49.168;9.848;2023-06-04T00:28:04;96858.31;;;20.99;32.09
40838;BME280;29632;49.168;9.848;2023-06-04T00:30:29;96855.47;;;20.93;31.99
40838;BME280;29632;49.168;9.848;2023-06-04T00:32:55;96853.44;;;20.89;31.82
40838;BME280;29632;49.168;9.848;2023-06-04T00:35:21;96850.19;;;20.87;32.00
40838;BME280;29632;49.168;9.848;2023-06-04T00:37:47;96854.25;;;20.83;32.07
40838;BME280;29632;49.168;9.848;2023-06-04T00:40:12;96861.00;;;20.79;31.93
40838;BME280;29632;49.168;9.848;2023-06-04T00:42:38;96853.47;;;20.75;31.98
40838;BME280;29632;49.168;9.848;2023-06-04T00:45:04;96858.38;;;20.72;31.88
40838;BME280;29632;49.168;9.848;2023-06-04T00:47:33;96854.50;;;20.68;31.91
40838;BME280;29632;49.168;9.848;2023-06-04T00:49:59;96861.00;;;20.65;31.91
40838;BME280;29632;49.168;9.848;2023-06-04T00:52:25;96865.91;;;20.62;31.96
40838;BME280;29632;49.168;9.848;2023-06-04T00:54:51;96856.53;;;20.59;32.06
40838;BME280;29632;49.168;9.848;2023-06-04T00:57:17;96861.41;;;20.55;31.95
40838;BME280;29632;49.168;9.848;2023-06-04T00:59:43;96863.47;;;20.53;31.96
40838;BME280;29632;49.168;9.848;2023-06-04T01:02:12;96856.94;;;20.49;32.02
40838;BME280;29632;49.168;9.848;2023-06-04T01:04:44;96865.31;;;20.46;32.01
40838;BME280;29632;49.168;9.848;2023-06-04T01:07:11;96851.69;;;20.43;32.17
40838;BME280;29632;49.168;9.848;2023-06-04T01:09:38;96859.19;;;20.39;32.00
40838;BME280;29632;49.168;9.848;2023-06-04T01:12:05;96855.13;;;20.36;32.08
40838;BME280;29632;49.168;9.848;2023-06-04T01:14:31;96862.66;;;20.33;32.09
40838;BME280;29632;49.168;9.848;2023-06-04T01:17:15;96869.38;;;20.29;32.08
40838;BME280;29632;49.168;9.848;2023-06-04T01:22:45;96868.53;;;20.22;32.00
40838;BME280;29632;49.168;9.848;2023-06-04T01:25:15;96876.06;;;20.18;31.98
40838;BME280;29632;49.168;9.848;2023-06-04T01:27:47;96875.66;;;20.14;32.03
40838;BME280;29632;49.168;9.848;2023-06-04T01:30:14;96882.16;;;20.12;32.12
40838;BME280;29632;49.168;9.848;2023-06-04T01:32:41;96875.44;;;20.09;32.06
40838;BME280;29632;49.168;9.848;2023-06-04T01:35:11;96875.88;;;20.06;32.23
40838;BME280;29632;49.168;9.848;2023-06-04T01:37:37;96881.53;;;20.03;32.16
40838;BME280;29632;49.168;9.848;2023-06-04T01:40:03;96880.09;;;20.00;32.24
40838;BME280;29632;49.168;9.848;2023-06-04T01:42:30;96877.88;;;19.97;32.24
40838;BME280;29632;49.168;9.848;2023-06-04T01:44:56;96883.38;;;19.96;32.26
40838;BME280;29632;49.168;9.848;2023-06-04T01:47:21;96879.28;;;19.93;32.31
40838;BME280;29632;49.168;9.848;2023-06-04T01:49:47;96879.91;;;19.89;32.14
40838;BME280;29632;49.168;9.848;2023-06-04T01:52:12;96884.56;;;19.87;32.17
40838;BME280;29632;49.168;9.848;2023-06-04T01:54:38;96878.84;;;19.83;32.08
40838;BME280;29632;49.168;9.848;2023-06-04T01:57:04;96885.97;;;19.83;32.39
40838;BME280;29632;49.168;9.848;2023-06-04T01:59:31;96882.72;;;19.80;32.29
40838;BME280;29632;49.168;9.848;2023-06-04T02:01:57;96883.91;;;19.78;32.41
40838;BME280;29632;49.168;9.848;2023-06-04T02:04:23;96887.78;;;19.75;32.31
40838;BME280;29632;49.168;9.848;2023-06-04T02:06:50;96884.50;;;19.73;32.44
40838;BME280;29632;49.168;9.848;2023-06-04T02:09:16;96879.81;;;19.69;32.55
40838;BME280;29632;49.168;9.848;2023-06-04T02:11:41;96879.41;;;19.65;32.54
40838;BME280;29632;49.168;9.848;2023-06-04T02:14:07;96874.91;;;19.59;32.54
40838;BME280;29632;49.168;9.848;2023-06-04T02:16:32;96880.59;;;19.56;32.61
40838;BME280;29632;49.168;9.848;2023-06-04T02:18:58;96877.53;;;19.52;32.60
40838;BME280;29632;49.168;9.848;2023-06-04T02:21:24;96879.75;;;19.49;32.46
40838;BME280;29632;49.168;9.848;2023-06-04T02:23:50;96879.34;;;19.45;32.66
40838;BME280;29632;49.168;9.848;2023-06-04T02:26:15;96879.13;;;19.40;32.50
40838;BME280;29632;49.168;9.848;2023-06-04T02:28:41;96878.91;;;19.35;32.48
40838;BME280;29632;49.168;9.848;2023-06-04T02:31:07;96878.47;;;19.31;32.75
40838;BME280;29632;49.168;9.848;2023-06-04T02:33:32;96882.50;;;19.27;32.67
40838;BME280;29632;49.168;9.848;2023-06-04T02:35:58;96880.28;;;19.24;32.75
40838;BME280;29632;49.168;9.848;2023-06-04T02:38:24;96887.34;;;19.23;32.65
40838;BME280;29632;49.168;9.848;2023-06-04T02:40:49;96871.72;;;19.22;32.41
40838;BME280;29632;49.168;9.848;2023-06-04T02:43:15;96871.72;;;19.22;32.58
40838;BME280;29632;49.168;9.848;2023-06-04T02:45:41;96871.09;;;19.20;32.58
40838;BME280;29632;49.168;9.848;2023-06-04T02:48:06;96876.38;;;19.20;32.67
40838;BME280;29632;49.168;9.848;2023-06-04T02:50:32;96876.78;;;19.17;32.41
40838;BME280;29632;49.168;9.848;2023-06-04T02:52:58;96884.91;;;19.15;32.82
40838;BME280;29632;49.168;9.848;2023-06-04T02:55:23;96884.06;;;19.15;32.60
40838;BME280;29632;49.168;9.848;2023-06-04T02:57:49;96886.09;;;19.13;32.33
40838;BME280;29632;49.168;9.848;2023-06-04T03:00:17;96890.56;;;19.12;32.59
40838;BME280;29632;49.168;9.848;2023-06-04T03:02:46;96890.75;;;19.11;32.51
40838;BME280;29632;49.168;9.848;2023-06-04T03:05:14;96884.88;;;19.09;32.20
40838;BME280;29632;49.168;9.848;2023-06-04T03:07:41;96891.97;;;19.08;32.23
40838;BME280;29632;49.168;9.848;2023-06-04T03:10:08;96884.44;;;19.05;32.54
40838;BME280;29632;49.168;9.848;2023-06-04T03:12:34;96879.97;;;19.05;32.28
40838;BME280;29632;49.168;9.848;2023-06-04T03:15:00;96881.81;;;19.05;32.08
40838;BME280;29632;49.168;9.848;2023-06-04T03:17:26;96887.09;;;19.05;32.35
40838;BME280;29632;49.168;9.848;2023-06-04T03:19:52;96888.88;;;19.04;32.27
40838;BME280;29632;49.168;9.848;2023-06-04T03:22:18;96883.59;;;19.04;32.32
40838;BME280;29632;49.168;9.848;2023-06-04T03:24:43;96890.72;;;19.04;32.40
40838;BME280;29632;49.168;9.848;2023-06-04T03:27:09;96890.09;;;19.02;32.31
40838;BME280;29632;49.168;9.848;2023-06-04T03:29:36;96895.19;;;19.03;32.30
40838;BME280;29632;49.168;9.848;2023-06-04T03:32:02;96890.09;;;19.02;31.99
40838;BME280;29632;49.168;9.848;2023-06-04T03:34:28;96890.09;;;19.02;31.95
40838;BME280;29632;49.168;9.848;2023-06-04T03:36:57;96891.94;;;19.01;32.24
40838;BME280;29632;49.168;9.848;2023-06-04T03:39:22;96893.75;;;19.01;32.29
40838;BME280;29632;49.168;9.848;2023-06-04T03:41:48;96895.75;;;18.99;32.37
40838;BME280;29632;49.168;9.848;2023-06-04T03:44:15;96902.69;;;19.00;32.38
40838;BME280;29632;49.168;9.848;2023-06-04T03:46:41;96907.34;;;18.98;32.40
40838;BME280;29632;49.168;9.848;2023-06-04T03:49:12;96907.53;;;18.96;32.35
40838;BME280;29632;49.168;9.848;2023-06-04T03:51:38;96905.91;;;18.95;32.44
40838;BME280;29632;49.168;9.848;2023-06-04T03:54:04;96907.72;;;18.95;32.75
40838;BME280;29632;49.168;9.848;2023-06-04T03:56:30;96908.28;;;18.90;32.46
40838;BME280;29632;49.168;9.848;2023-06-04T03:58:56;96911.97;;;18.89;32.27
40838;BME280;29632;49.168;9.848;2023-06-04T04:01:22;96906.88;;;18.88;32.53
40838;BME280;29632;49.168;9.848;2023-06-04T04:03:49;96911.72;;;18.84;32.56
40838;BME280;29632;49.168;9.848;2023-06-04T04:06:16;96914.72;;;18.81;32.73
40838;BME280;29632;49.168;9.848;2023-06-04T04:08:42;96915.88;;;18.78;32.54
40838;BME280;29632;49.168;9.848;2023-06-04T04:11:10;96905.94;;;18.74;32.58
40838;BME280;29632;49.168;9.848;2023-06-04T04:13:36;96911.41;;;18.72;32.46
40838;BME280;29632;49.168;9.848;2023-06-04T04:16:01;96915.88;;;18.72;32.59
40838;BME280;29632;49.168;9.848;2023-06-04T04:18:27;96916.06;;;18.70;32.63
40838;BME280;29632;49.168;9.848;2023-06-04T04:20:53;96917.25;;;18.67;32.79
40838;BME280;29632;49.168;9.848;2023-06-04T04:23:18;96914.41;;;18.69;32.39
40838;BME280;29632;49.168;9.848;2023-06-04T04:25:45;96916.06;;;18.70;32.74
40838;BME280;29632;49.168;9.848;2023-06-04T04:28:11;96918.50;;;18.72;32.60
40838;BME280;29632;49.168;9.848;2023-06-04T04:30:37;96927.22;;;18.72;32.60
40838;BME280;29632;49.168;9.848;2023-06-04T04:33:03;96928.66;;;18.75;32.65
40838;BME280;29632;49.168;9.848;2023-06-04T04:35:31;96924.84;;;18.77;32.61
40838;BME280;29632;49.168;9.848;2023-06-04T04:38:01;96917.34;;;18.81;32.39
40838;BME280;29632;49.168;9.848;2023-06-04T04:40:31;96924.72;;;18.85;32.49
40838;BME280;29632;49.168;9.848;2023-06-04T04:42:57;96916.22;;;18.90;32.48
40838;BME280;29632;49.168;9.848;2023-06-04T04:45:23;96925.41;;;18.94;32.41
40838;BME280;29632;49.168;9.848;2023-06-04T04:47:49;96931.09;;;18.98;32.53
40838;BME280;29632;49.168;9.848;2023-06-04T04:50:16;96926.25;;;19.01;32.41
40838;BME280;29632;49.168;9.848;2023-06-04T04:52:42;96926.66;;;19.05;32.56
40838;BME280;29632;49.168;9.848;2023-06-04T04:55:08;96930.53;;;19.09;32.35
40838;BME280;29632;49.168;9.848;2023-06-04T04:57:34;96938.88;;;19.13;32.32
40838;BME280;29632;49.168;9.848;2023-06-04T05:00:00;96939.31;;;19.16;32.25
40838;BME280;29632;49.168;9.848;2023-06-04T05:02:26;96941.38;;;19.21;32.32
40838;BME280;29632;49.168;9.848;2023-06-04T05:04:53;96944.44;;;19.24;32.21
40838;BME280;29632;49.168;9.848;2023-06-04T05:07:18;96941.00;;;19.31;32.55
40838;BME280;29632;49.168;9.848;2023-06-04T05:09:46;96951.00;;;19.35;32.13
40838;BME280;29632;49.168;9.848;2023-06-04T05:12:12;96952.88;;;19.41;32.46
40838;BME280;29632;49.168;9.848;2023-06-04T05:14:38;96949.81;;;19.44;32.34
40838;BME280;29632;49.168;9.848;2023-06-04T05:17:03;96956.16;;;19.50;32.16
40838;BME280;29632;49.168;9.848;2023-06-04T05:19:29;96950.47;;;19.53;32.19
40838;BME280;29632;49.168;9.848;2023-06-04T05:21:58;96955.97;;;19.58;32.05
40838;BME280;29632;49.168;9.848;2023-06-04T05:24:26;96956.19;;;19.63;32.07
40838;BME280;29632;49.168;9.848;2023-06-04T05:26:51;96950.34;;;19.68;31.99
40838;BME280;29632;49.168;9.848;2023-06-04T05:29:17;96946.13;;;19.74;32.02
40838;BME280;29632;49.168;9.848;2023-06-04T05:31:42;96944.69;;;19.78;32.16
40838;BME280;29632;49.168;9.848;2023-06-04T05:34:09;96956.53;;;19.82;32.05
40838;BME280;29632;49.168;9.848;2023-06-04T05:36:34;96953.06;;;19.88;32.00
40838;BME280;29632;49.168;9.848;2023-06-04T05:39:00;96959.41;;;19.94;32.18
40838;BME280;29632;49.168;9.848;2023-06-04T05:41:27;96957.19;;;19.97;31.87
40838;BME280;29632;49.168;9.848;2023-06-04T05:43:53;96957.41;;;20.03;32.24
40838;BME280;29632;49.168;9.848;2023-06-04T05:46:18;96960.47;;;20.06;32.07
40838;BME280;29632;49.168;9.848;2023-06-04T05:48:44;96963.31;;;20.11;31.91
40838;BME280;29632;49.168;9.848;2023-06-04T05:51:12;96957.22;;;20.17;31.93
40838;BME280;29632;49.168;9.848;2023-06-04T05:53:38;96959.28;;;20.22;31.87
40838;BME280;29632;49.168;9.848;2023-06-04T05:56:04;96961.94;;;20.29;31.90
40838;BME280;29632;49.168;9.848;2023-06-04T05:58:30;96966.59;;;20.33;31.79
40838;BME280;29632;49.168;9.848;2023-06-04T06:00:56;96966.59;;;20.40;31.95
40838;BME280;29632;49.168;9.848;2023-06-04T06:03:22;96965.81;;;20.46;31.77
40838;BME280;29632;49.168;9.848;2023-06-04T06:05:48;96966.22;;;20.50;31.87
40838;BME280;29632;49.168;9.848;2023-06-04T06:08:14;96959.50;;;20.54;31.80
40838;BME280;29632;49.168;9.848;2023-06-04T06:10:40;96964.19;;;20.59;31.81
40838;BME280;29632;49.168;9.848;2023-06-04T06:13:05;96970.72;;;20.63;31.85
40838;BME280;29632;49.168;9.848;2023-06-04T06:15:31;96974.59;;;20.67;31.94
40838;BME280;29632;49.168;9.848;2023-06-04T06:17:56;96979.09;;;20.73;31.81
40838;BME280;29632;49.168;9.848;2023-06-04T06:20:22;96978.50;;;20.78;31.80
40838;BME280;29632;49.168;9.848;2023-06-04T06:22:48;96980.31;;;20.84;31.80
40838;BME280;29632;49.168;9.848;2023-06-04T06:25:13;96977.66;;;20.90;31.74
40838;BME280;29632;49.168;9.848;2023-06-04T06:27:41;96979.25;;;20.98;31.76
40838;BME280;29632;49.168;9.848;2023-06-04T06:30:08;96980.91;;;21.06;31.63
40838;BME280;29632;49.168;9.848;2023-06-04T06:32:34;96988.63;;;21.14;31.80
40838;BME280;29632;49.168;9.848;2023-06-04T06:35:00;96985.75;;;21.22;31.70
40838;BME280;29632;49.168;9.848;2023-06-04T06:37:26;96982.31;;;21.28;31.64
40838;BME280;29632;49.168;9.848;2023-06-04T06:39:51;96984.09;;;21.35;31.86
40838;BME280;29632;49.168;9.848;2023-06-04T06:42:17;96982.25;;;21.42;31.76
40838;BME280;29632;49.168;9.848;2023-06-04T06:44:44;96984.72;;;21.50;31.73
40838;BME280;29632;49.168;9.848;2023-06-04T06:47:09;96985.50;;;21.57;31.75
40838;BME280;29632;49.168;9.848;2023-06-04T06:49:41;96995.88;;;21.65;31.87
40838;BME280;29632;49.168;9.848;2023-06-04T06:52:07;96998.50;;;21.72;31.74
40838;BME280;29632;49.168;9.848;2023-06-04T06:54:33;96991.34;;;21.79;31.65
40838;BME280;29632;49.168;9.848;2023-06-04T06:56:59;96996.00;;;21.84;31.66
40838;BME280;29632;49.168;9.848;2023-06-04T06:59:24;96991.72;;;21.90;31.66
40838;BME280;29632;49.168;9.848;2023-06-04T07:01:50;96999.63;;;21.96;31.71
40838;BME280;29632;49.168;9.848;2023-06-04T07:04:16;96998.78;;;22.02;31.77
40838;BME280;29632;49.168;9.848;2023-06-04T07:06:42;96995.06;;;22.10;31.58
40838;BME280;29632;49.168;9.848;2023-06-04T07:09:08;96992.38;;;22.17;31.88
40838;BME280;29632;49.168;9.848;2023-06-04T07:11:34;96993.56;;;22.28;31.46
40838;BME280;29632;49.168;9.848;2023-06-04T07:14:00;96996.78;;;22.36;31.42
40838;BME280;29632;49.168;9.848;2023-06-04T07:16:28;96988.78;;;22.43;31.68
40838;BME280;29632;49.168;9.848;2023-06-04T07:18:54;96992.66;;;22.47;31.70
40838;BME280;29632;49.168;9.848;2023-06-04T07:21:19;96997.31;;;22.52;31.45
40838;BME280;29632;49.168;9.848;2023-06-04T07:23:47;96991.38;;;22.56;31.56
40838;BME280;29632;49.168;9.848;2023-06-04T07:26:15;96991.31;;;22.63;31.59
40838;BME280;29632;49.168;9.848;2023-06-04T07:28:42;96991.25;;;22.70;31.79
40838;BME280;29632;49.168;9.848;2023-06-04T07:31:07;96994.31;;;22.73;31.78
40838;BME280;29632;49.168;9.848;2023-06-04T07:33:33;96995.06;;;22.80;31.40
40838;BME280;29632;49.168;9.848;2023-06-04T07:35:59;96994.56;;;22.90;31.37
40838;BME280;29632;49.168;9.848;2023-06-04T07:38:25;96989.78;;;22.99;31.64
40838;BME280;29632;49.168;9.848;2023-06-04T07:40:51;97002.03;;;23.07;31.30
40838;BME280;29632;49.168;9.848;2023-06-04T07:43:16;96990.88;;;23.16;31.45
40838;BME280;29632;49.168;9.848;2023-06-04T07:45:42;96997.31;;;23.27;31.60
40838;BME280;29632;49.168;9.848;2023-06-04T07:48:11;96993.94;;;23.38;31.36
40838;BME280;29632;49.168;9.848;2023-06-04T07:50:37;96997.72;;;23.49;31.64
40838;BME280;29632;49.168;9.848;2023-06-04T07:53:02;96998.59;;;23.62;31.28
40838;BME280;29632;49.168;9.848;2023-06-04T07:55:28;96996.03;;;23.73;31.60
40838;BME280;29632;49.168;9.848;2023-06-04T07:57:54;96992.06;;;23.83;31.63
40838;BME280;29632;49.168;9.848;2023-06-04T08:00:20;96998.47;;;23.93;31.40
40838;BME280;29632;49.168;9.848;2023-06-04T08:02:45;96991.56;;;24.04;31.34
40838;BME280;29632;49.168;9.848;2023-06-04T08:05:11;96993.69;;;24.14;31.06
40838;BME280;29632;49.168;9.848;2023-06-04T08:07:40;96992.94;;;24.25;31.32
40838;BME280;29632;49.168;9.848;2023-06-04T08:10:06;96986.03;;;24.36;30.96
40838;BME280;29632;49.168;9.848;2023-06-04T08:12:32;96987.34;;;24.45;31.13
40838;BME280;29632;49.168;9.848;2023-06-04T08:14:58;96988.44;;;24.56;31.18
40838;BME280;29632;49.168;9.848;2023-06-04T08:17:23;96992.38;;;24.65;31.25
40838;BME280;29632;49.168;9.848;2023-06-04T08:19:49;96989.16;;;24.75;31.03
40838;BME280;29632;49.168;9.848;2023-06-04T08:22:15;96979.78;;;24.84;30.87
40838;BME280;29632;49.168;9.848;2023-06-04T08:24:41;96990.69;;;24.95;31.04
40838;BME280;29632;49.168;9.848;2023-06-04T08:27:06;96984.78;;;25.04;30.99
40838;BME280;29632;49.168;9.848;2023-06-04T08:29:34;96990.00;;;25.11;30.78
40838;BME280;29632;49.168;9.848;2023-06-04T08:32:01;96980.03;;;25.18;30.74
40838;BME280;29632;49.168;9.848;2023-06-04T08:34:28;96990.97;;;25.29;30.95
40838;BME280;29632;49.168;9.848;2023-06-04T08:36:53;96987.94;;;25.37;30.58
40838;BME280;29632;49.168;9.848;2023-06-04T08:39:19;96988.59;;;25.44;30.78
40838;BME280;29632;49.168;9.848;2023-06-04T08:41:48;96988.03;;;25.54;30.78
40838;BME280;29632;49.168;9.848;2023-06-04T08:44:16;96996.13;;;25.59;30.68
40838;BME280;29632;49.168;9.848;2023-06-04T08:46:42;97003.78;;;25.67;30.84
40838;BME280;29632;49.168;9.848;2023-06-04T08:49:08;96998.91;;;25.76;30.66
40838;BME280;29632;49.168;9.848;2023-06-04T08:51:36;96996.06;;;25.82;30.50
40838;BME280;29632;49.168;9.848;2023-06-04T08:54:06;97000.00;;;25.92;30.61
40838;BME280;29632;49.168;9.848;2023-06-04T08:56:33;97000.13;;;25.97;30.63
40838;BME280;29632;49.168;9.848;2023-06-04T08:59:04;96994.91;;;26.02;30.50
40838;BME280;29632;49.168;9.848;2023-06-04T09:01:31;96996.03;;;26.06;30.71
40838;BME280;29632;49.168;9.848;2023-06-04T09:03:58;97004.72;;;26.13;30.63
40838;BME280;29632;49.168;9.848;2023-06-04T09:06:25;96999.00;;;26.22;30.39
40838;BME280;29632;49.168;9.848;2023-06-04T09:08:51;97004.44;;;26.27;30.29
40838;BME280;29632;49.168;9.848;2023-06-04T09:11:18;97000.78;;;26.33;30.49
40838;BME280;29632;49.168;9.848;2023-06-04T09:13:45;97013.53;;;26.43;30.33
40838;BME280;29632;49.168;9.848;2023-06-04T09:16:12;97001.63;;;26.50;30.64
40838;BME280;29632;49.168;9.848;2023-06-04T09:18:38;96995.91;;;26.59;30.45
40838;BME280;29632;49.168;9.848;2023-06-04T09:21:07;96999.81;;;26.68;30.24
40838;BME280;29632;49.168;9.848;2023-06-04T09:23:46;97001.31;;;26.75;30.24
40838;BME280;29632;49.168;9.848;2023-06-04T09:26:13;97006.00;;;26.85;30.13
40838;BME280;29632;49.168;9.848;2023-06-04T09:28:43;96997.56;;;26.93;29.85
40838;BME280;29632;49.168;9.848;2023-06-04T09:31:16;97004.59;;;27.00;29.94
40838;BME280;29632;49.168;9.848;2023-06-04T09:33:45;97000.72;;;27.07;30.10
40838;BME280;29632;49.168;9.848;2023-06-04T09:36:11;97001.03;;;27.11;29.92
40838;BME280;29632;49.168;9.848;2023-06-04T09:38:38;96991.47;;;27.15;29.92
40838;BME280;29632;49.168;9.848;2023-06-04T09:41:03;96997.72;;;27.21;29.75
40838;BME280;29632;49.168;9.848;2023-06-04T09:43:32;96999.41;;;27.27;29.89
40838;BME280;29632;49.168;9.848;2023-06-04T09:46:15;96993.91;;;27.34;29.81
40838;BME280;29632;49.168;9.848;2023-06-04T09:48:41;96994.78;;;27.39;29.72
40838;BME280;29632;49.168;9.848;2023-06-04T09:53:33;97001.16;;;27.55;29.54
40838;BME280;29632;49.168;9.848;2023-06-04T09:56:00;96999.34;;;27.61;29.32
40838;BME280;29632;49.168;9.848;2023-06-04T09:58:28;97001.03;;;27.67;29.32
40838;BME280;29632;49.168;9.848;2023-06-04T10:00:54;97003.53;;;27.74;29.52
40838;BME280;29632;49.168;9.848;2023-06-04T10:03:21;96994.25;;;27.81;29.44
40838;BME280;29632;49.168;9.848;2023-06-04T10:05:54;96996.75;;;27.88;29.23
40838;BME280;29632;49.168;9.848;2023-06-04T10:08:24;97000.06;;;27.95;29.37
40838;BME280;29632;49.168;9.848;2023-06-04T10:10:51;96998.84;;;28.03;29.16
40838;BME280;29632;49.168;9.848;2023-06-04T10:13:18;97003.16;;;28.09;29.26
40838;BME280;29632;49.168;9.848;2023-06-04T10:15:46;97003.47;;;28.13;29.35
40838;BME280;29632;49.168;9.848;2023-06-04T10:18:12;96997.63;;;28.16;29.25
40838;BME280;29632;49.168;9.848;2023-06-04T10:20:39;96998.47;;;28.21;29.34
40838;BME280;29632;49.168;9.848;2023-06-04T10:23:06;97006.31;;;28.28;29.27
40838;BME280;29632;49.168;9.848;2023-06-04T10:25:34;97006.38;;;28.33;29.28
40838;BME280;29632;49.168;9.848;2023-06-04T10:28:04;96997.06;;;28.41;29.32
40838;BME280;29632;49.168;9.848;2023-06-04T10:30:30;96994.69;;;28.44;28.78
40838;BME280;29632;49.168;9.848;2023-06-04T10:32:56;96988.34;;;28.51;28.66
40838;BME280;29632;49.168;9.848;2023-06-04T10:35:32;96988.97;;;28.58;28.95
40838;BME280;29632;49.168;9.848;2023-06-04T10:38:08;96994.38;;;28.63;28.98
40838;BME280;29632;49.168;9.848;2023-06-04T10:40:35;96991.72;;;28.68;28.87
40838;BME280;29632;49.168;9.848;2023-06-04T10:43:05;96987.75;;;28.76;28.54
40838;BME280;29632;49.168;9.848;2023-06-04T10:45:31;96983.28;;;28.81;28.83
40838;BME280;29632;49.168;9.848;2023-06-04T10:48:00;96987.84;;;28.86;28.68
40838;BME280;29632;49.168;9.848;2023-06-04T10:50:26;96994.34;;;28.90;28.56
40838;BME280;29632;49.168;9.848;2023-06-04T10:52:53;96986.03;;;28.97;28.47
40838;BME280;29632;49.168;9.848;2023-06-04T10:55:18;96987.72;;;29.03;28.36
40838;BME280;29632;49.168;9.848;2023-06-04T10:57:58;96989.63;;;29.08;28.33
40838;BME280;29632;49.168;9.848;2023-06-04T11:00:41;96979.75;;;29.13;28.29
40838;BME280;29632;49.168;9.848;2023-06-04T11:03:09;96983.28;;;29.19;28.22
40838;BME280;29632;49.168;9.848;2023-06-04T11:05:36;96984.38;;;29.23;28.50
40838;BME280;29632;49.168;9.848;2023-06-04T11:08:03;96980.66;;;29.29;28.50
40838;BME280;29632;49.168;9.848;2023-06-04T11:10:40;96982.28;;;29.35;28.26
40838;BME280;29632;49.168;9.848;2023-06-04T11:13:05;96988.22;;;29.37;28.07
40838;BME280;29632;49.168;9.848;2023-06-04T11:18:04;96982.00;;;29.32;28.42
40838;BME280;29632;49.168;9.848;2023-06-04T11:20:30;96983.59;;;29.28;28.35
40838;BME280;29632;49.168;9.848;2023-06-04T11:22:57;96971.81;;;29.29;28.09
40838;BME280;29632;49.168;9.848;2023-06-04T11:25:25;96979.03;;;29.28;27.93
40838;BME280;29632;49.168;9.848;2023-06-04T11:27:52;96975.56;;;29.28;28.03
40838;BME280;29632;49.168;9.848;2023-06-04T11:30:18;96975.84;;;29.31;27.92
40838;BME280;29632;49.168;9.848;2023-06-04T11:32:44;96974.50;;;29.29;27.78
40838;BME280;29632;49.168;9.848;2023-06-04T11:35:10;96974.50;;;29.29;28.18
40838;BME280;29632;49.168;9.848;2023-06-04T11:37:37;96982.00;;;29.32;27.96
40838;BME280;29632;49.168;9.848;2023-06-04T11:40:03;96965.94;;;29.37;27.96
40838;BME280;29632;49.168;9.848;2023-06-04T11:42:32;96971.34;;;29.42;27.71
40838;BME280;29632;49.168;9.848;2023-06-04T11:44:58;96975.66;;;29.43;28.01
40838;BME280;29632;49.168;9.848;2023-06-04T11:47:24;96970.31;;;29.48;27.66
40838;BME280;29632;49.168;9.848;2023-06-04T11:49:56;96975.16;;;29.51;27.59
40838;BME280;29632;49.168;9.848;2023-06-04T11:52:22;96980.25;;;29.53;27.89
40838;BME280;29632;49.168;9.848;2023-06-04T11:54:48;96971.69;;;29.56;27.38
40838;BME280;29632;49.168;9.848;2023-06-04T11:57:14;96977.59;;;29.58;27.50
40838;BME280;29632;49.168;9.848;2023-06-04T11:59:40;96971.72;;;29.61;27.37
40838;BME280;29632;49.168;9.848;2023-06-04T12:02:07;96973.06;;;29.64;27.31
40838;BME280;29632;49.168;9.848;2023-06-04T12:04:33;96969.03;;;29.66;27.26
40838;BME280;29632;49.168;9.848;2023-06-04T12:07:01;96973.34;;;29.67;27.35
40838;BME280;29632;49.168;9.848;2023-06-04T12:09:31;96966.38;;;29.66;27.27
40838;BME280;29632;49.168;9.848;2023-06-04T12:12:01;96960.75;;;29.68;27.30
40838;BME280;29632;49.168;9.848;2023-06-04T12:14:28;96955.66;;;29.71;27.66
40838;BME280;29632;49.168;9.848;2023-06-04T12:17:01;96952.44;;;29.69;27.52
40838;BME280;29632;49.168;9.848;2023-06-04T12:19:27;96950.81;;;29.68;27.48
40838;BME280;29632;49.168;9.848;2023-06-04T12:22:06;96955.88;;;29.65;27.62
40838;BME280;29632;49.168;9.848;2023-06-04T12:24:33;96951.00;;;29.56;27.71
40838;BME280;29632;49.168;9.848;2023-06-04T12:27:08;96957.72;;;29.54;27.48
40838;BME280;29632;49.168;9.848;2023-06-04T12:29:35;96945.91;;;29.50;27.61
40838;BME280;29632;49.168;9.848;2023-06-04T12:32:08;96957.69;;;29.44;27.83
40838;BME280;29632;49.168;9.848;2023-06-04T12:34:34;96954.72;;;29.45;27.74
40838;BME280;29632;49.168;9.848;2023-06-04T12:37:01;96946.19;;;29.48;27.60
40838;BME280;29632;49.168;9.848;2023-06-04T12:39:29;96951.56;;;29.53;27.32
40838;BME280;29632;49.168;9.848;2023-06-04T12:41:55;96951.31;;;29.60;27.43
40838;BME280;29632;49.168;9.848;2023-06-04T12:44:20;96952.94;;;29.66;27.49
40838;BME280;29632;49.168;9.848;2023-06-04T12:46:46;96952.94;;;29.66;27.42
40838;BME280;29632;49.168;9.848;2023-06-04T12:49:12;96947.84;;;29.65;27.11
40838;BME280;29632;49.168;9.848;2023-06-04T12:51:38;96943.56;;;29.64;27.10
40838;BME280;29632;49.168;9.848;2023-06-04T12:54:04;96946.25;;;29.64;27.39
40838;BME280;29632;49.168;9.848;2023-06-04T12:56:30;96954.00;;;29.65;27.15
40838;BME280;29632;49.168;9.848;2023-06-04T12:58:56;96959.38;;;29.70;27.35
40838;BME280;29632;49.168;9.848;2023-06-04T13:01:21;96939.03;;;29.74;27.21
40838;BME280;29632;49.168;9.848;2023-06-04T13:03:47;96941.72;;;29.74;27.37
40838;BME280;29632;49.168;9.848;2023-06-04T13:06:13;96937.16;;;29.75;26.84